sensor_id;sensor_type;location;lat;lon;timestamp;pressure;altitude;pressure_sealevel;temperature;humidity
24825;BME280;12910;57.690;11.974;2023-03-25T00:00:59;98588.25;;;5.62;100.00
24825;BME280;12910;57.690;11.974;2023-03-25T00:03:29;98575.53;;;5.60;100.00
24825;BME280;12910;57.690;11.974;2023-03-25T00:05:55;98583.16;;;5.64;100.00
24825;BME280;12910;57.690;11.974;2023-03-25T00:08:22;98576.38;;;5.61;100.00
24825;BME280;12910;57.690;11.974;2023-03-25T00:10:53;98569.63;;;5.61;100.00
24825;BME280;12910;57.690;11.974;2023-03-25T00:13:18;98567.91;;;5.60;100.00
24825;BME280;12910;57.690;11.974;2023-03-25T00:15:46;98565.34;;;5.59;100.00
24825;BME280;12910;57.690;11.974;2023-03-25T00:18:12;98578.09;;;5.60;100.00
24825;BME280;12910;57.690;11.974;2023-03-25T00:20:38;98568.75;;;5.61;100.00
24825;BME280;12910;57.690;11.974;2023-03-25T00:23:10;98557.75;;;5.57;100.00
24825;BME280;12910;57.690;11.974;2023-03-25T00:25:36;98569.63;;;5.61;100.00
24825;BME280;12910;57.690;11.974;2023-03-25T00:28:01;98556.91;;;5.60;100.00
24825;BME280;12910;57.690;11.974;2023-03-25T00:30:28;98562.84;;;5.60;100.00
24825;BME280;12910;57.690;11.974;2023-03-25T00:32:54;98545.00;;;5.54;100.00
24825;BME280;12910;57.690;11.974;2023-03-25T00:35:22;98554.38;;;5.61;100.00
24825;BME280;12910;57.690;11.974;2023-03-25T00:37:49;98552.66;;;5.56;100.00
24825;BME280;12910;57.690;11.974;2023-03-25T00:40:22;98548.44;;;5.59;100.00
24825;BME280;12910;57.690;11.974;2023-03-25T00:42:47;98551.00;;;5.63;100.00
24825;BME280;12910;57.690;11.974;2023-03-25T00:45:14;98556.91;;;5.63;100.00
24825;BME280;12910;57.690;11.974;2023-03-25T00:47:40;98555.22;;;5.62;100.00
24825;BME280;12910;57.690;11.974;2023-03-25T00:50:06;98547.56;;;5.59;100.00
24825;BME280;12910;57.690;11.974;2023-03-25T00:52:31;98539.94;;;5.59;100.00
24825;BME280;12910;57.690;11.974;2023-03-25T00:54:57;98549.28;;;5.58;100.00
24825;BME280;12910;57.690;11.974;2023-03-25T00:57:22;98550.97;;;5.59;100.00
24825;BME280;12910;57.690;11.974;2023-03-25T00:59:47;98552.69;;;5.60;100.00
24825;BME280;12910;57.690;11.974;2023-03-25T01:02:13;98539.13;;;5.61;100.00
24825;BME280;12910;57.690;11.974;2023-03-25T01:04:40;98550.13;;;5.62;100.00
24825;BME280;12910;57.690;11.974;2023-03-25T01:07:06;98545.91;;;5.63;100.00
24825;BME280;12910;57.690;11.974;2023-03-25T01:09:32;98551.84;;;5.61;100.00
24825;BME280;12910;57.690;11.974;2023-03-25T01:11:57;98537.41;;;5.57;100.00
24825;BME280;12910;57.690;11.974;2023-03-25T01:14:23;98549.28;;;5.58;100.00
24825;BME280;12910;57.690;11.974;2023-03-25T01:16:51;98533.13;;;5.49;100.00
24825;BME280;12910;57.690;11.974;2023-03-25T01:19:16;98548.41;;;5.52;100.00
24825;BME280;12910;57.690;11.974;2023-03-25T01:21:42;98556.06;;;5.59;100.00
24825;BME280;12910;57.690;11.974;2023-03-25T01:24:12;98556.91;;;5.60;100.00
24825;BME280;12910;57.690;11.974;2023-03-25T01:26:37;98548.41;;;5.55;100.00
24825;BME280;12910;57.690;11.974;2023-03-25T01:29:05;98557.75;;;5.57;100.00
24825;BME280;12910;57.690;11.974;2023-03-25T01:31:30;98551.81;;;5.60;100.00
24825;BME280;12910;57.690;11.974;2023-03-25T01:33:57;98554.34;;;5.58;100.00
24825;BME280;12910;57.690;11.974;2023-03-25T01:36:23;98542.47;;;5.54;100.00
24825;BME280;12910;57.690;11.974;2023-03-25T01:38:50;98556.03;;;5.55;100.00
24825;BME280;12910;57.690;11.974;2023-03-25T01:41:15;98547.56;;;5.53;100.00
24825;BME280;12910;57.690;11.974;2023-03-25T01:43:41;98551.81;;;5.57;100.00
24825;BME280;12910;57.690;11.974;2023-03-25T01:46:11;98537.41;;;5.53;100.00
24825;BME280;12910;57.690;11.974;2023-03-25T01:48:41;98542.50;;;5.57;100.00
24825;BME280;12910;57.690;11.974;2023-03-25T01:51:17;98546.72;;;5.60;100.00
24825;BME280;12910;57.690;11.974;2023-03-25T01:53:44;98549.28;;;5.58;100.00
24825;BME280;12910;57.690;11.974;2023-03-25T01:56:12;98542.50;;;5.60;100.00
24825;BME280;12910;57.690;11.974;2023-03-25T01:58:39;98544.19;;;5.57;100.00
24825;BME280;12910;57.690;11.974;2023-03-25T02:01:06;98546.75;;;5.57;100.00
24825;BME280;12910;57.690;11.974;2023-03-25T02:03:31;98537.41;;;5.54;100.00
24825;BME280;12910;57.690;11.974;2023-03-25T02:06:06;98537.41;;;5.57;100.00
24825;BME280;12910;57.690;11.974;2023-03-25T02:08:36;98517.94;;;5.55;100.00
24825;BME280;12910;57.690;11.974;2023-03-25T02:11:04;98525.56;;;5.59;100.00
24825;BME280;12910;57.690;11.974;2023-03-25T02:13:30;98521.34;;;5.61;100.00
24825;BME280;12910;57.690;11.974;2023-03-25T02:16:25;98516.25;;;5.65;100.00
24825;BME280;12910;57.690;11.974;2023-03-25T02:28:00;98504.41;;;5.67;100.00
24825;BME280;12910;57.690;11.974;2023-03-25T02:38:48;98508.66;;;5.66;100.00
24825;BME280;12910;57.690;11.974;2023-03-25T02:43:57;98496.75;;;5.64;100.00
24825;BME280;12910;57.690;11.974;2023-03-25T02:46:27;98499.31;;;5.64;100.00
24825;BME280;12910;57.690;11.974;2023-03-25T02:49:07;98490.00;;;5.63;100.00
24825;BME280;12910;57.690;11.974;2023-03-25T02:51:44;98491.69;;;5.65;100.00
24825;BME280;12910;57.690;11.974;2023-03-25T02:54:12;98488.28;;;5.65;100.00
24825;BME280;12910;57.690;11.974;2023-03-25T02:56:40;98485.75;;;5.68;100.00
24825;BME280;12910;57.690;11.974;2023-03-25T02:59:09;98482.38;;;5.69;100.00
24825;BME280;12910;57.690;11.974;2023-03-25T03:01:39;98480.69;;;5.68;100.00
24825;BME280;12910;57.690;11.974;2023-03-25T03:04:05;98468.81;;;5.65;100.00
24825;BME280;12910;57.690;11.974;2023-03-25T03:06:34;98474.75;;;5.66;100.00
24825;BME280;12910;57.690;11.974;2023-03-25T03:09:21;98480.69;;;5.66;100.00
24825;BME280;12910;57.690;11.974;2023-03-25T03:12:18;98500.16;;;5.66;100.00
24825;BME280;12910;57.690;11.974;2023-03-25T03:17:44;98491.69;;;5.64;100.00
24825;BME280;12910;57.690;11.974;2023-03-25T03:26:27;98501.00;;;5.57;100.00
24825;BME280;12910;57.690;11.974;2023-03-25T03:29:24;98497.59;;;5.53;100.00
24825;BME280;12910;57.690;11.974;2023-03-25T03:34:29;98492.50;;;5.47;100.00
24825;BME280;12910;57.690;11.974;2023-03-25T03:36:59;98478.97;;;5.48;100.00
24825;BME280;12910;57.690;11.974;2023-03-25T03:39:35;98469.63;;;5.47;100.00
24825;BME280;12910;57.690;11.974;2023-03-25T03:42:12;98452.69;;;5.46;100.00
24825;BME280;12910;57.690;11.974;2023-03-25T03:44:42;98462.84;;;5.46;100.00
24825;BME280;12910;57.690;11.974;2023-03-25T03:47:14;98476.41;;;5.48;100.00
24825;BME280;12910;57.690;11.974;2023-03-25T03:49:44;98480.66;;;5.48;100.00
24825;BME280;12910;57.690;11.974;2023-03-25T03:52:14;98481.50;;;5.46;100.00
24825;BME280;12910;57.690;11.974;2023-03-25T03:54:51;98471.34;;;5.48;100.00
24825;BME280;12910;57.690;11.974;2023-03-25T03:57:26;98472.19;;;5.47;100.00
24825;BME280;12910;57.690;11.974;2023-03-25T04:00:06;98470.50;;;5.48;100.00
24825;BME280;12910;57.690;11.974;2023-03-25T04:02:57;98462.00;;;5.42;100.00
24825;BME280;12910;57.690;11.974;2023-03-25T04:05:27;98481.50;;;5.46;100.00
24825;BME280;12910;57.690;11.974;2023-03-25T04:08:02;98485.72;;;5.44;100.00
24825;BME280;12910;57.690;11.974;2023-03-25T04:10:41;98473.03;;;5.46;100.00
24825;BME280;12910;57.690;11.974;2023-03-25T04:13:12;98467.09;;;5.42;100.00
24825;BME280;12910;57.690;11.974;2023-03-25T04:15:39;98461.16;;;5.34;100.00
24825;BME280;12910;57.690;11.974;2023-03-25T04:18:05;98464.56;;;5.41;100.00
24825;BME280;12910;57.690;11.974;2023-03-25T04:20:32;98456.06;;;5.40;100.00
24825;BME280;12910;57.690;11.974;2023-03-25T04:22:59;98460.31;;;5.40;100.00
24825;BME280;12910;57.690;11.974;2023-03-25T04:25:25;98451.00;;;5.39;100.00
24825;BME280;12910;57.690;11.974;2023-03-25T04:27:52;98449.31;;;5.36;100.00
24825;BME280;12910;57.690;11.974;2023-03-25T04:30:24;98451.00;;;5.37;100.00
24825;BME280;12910;57.690;11.974;2023-03-25T04:32:50;98433.19;;;5.26;100.00
24825;BME280;12910;57.690;11.974;2023-03-25T04:35:17;98456.06;;;5.39;100.00
24825;BME280;12910;57.690;11.974;2023-03-25T04:37:44;98457.78;;;5.40;100.00
24825;BME280;12910;57.690;11.974;2023-03-25T04:40:11;98451.00;;;5.40;100.00
24825;BME280;12910;57.690;11.974;2023-03-25T04:42:38;98459.47;;;5.47;100.00
24825;BME280;12910;57.690;11.974;2023-03-25T04:45:07;98453.53;;;5.45;100.00
24825;BME280;12910;57.690;11.974;2023-03-25T04:47:33;98461.16;;;5.48;100.00
24825;BME280;12910;57.690;11.974;2023-03-25T04:49:59;98461.16;;;5.50;100.00
24825;BME280;12910;57.690;11.974;2023-03-25T04:52:25;98456.94;;;5.52;100.00
24825;BME280;12910;57.690;11.974;2023-03-25T04:54:51;98451.84;;;5.52;100.00
24825;BME280;12910;57.690;11.974;2023-03-25T04:57:16;98450.16;;;5.49;100.00
24825;BME280;12910;57.690;11.974;2023-03-25T04:59:42;98443.38;;;5.48;100.00
24825;BME280;12910;57.690;11.974;2023-03-25T05:02:09;98441.69;;;5.52;100.00
24825;BME280;12910;57.690;11.974;2023-03-25T05:04:40;98454.38;;;5.53;100.00
24825;BME280;12910;57.690;11.974;2023-03-25T05:07:06;98441.69;;;5.53;100.00
24825;BME280;12910;57.690;11.974;2023-03-25T05:09:32;98444.25;;;5.55;100.00
24825;BME280;12910;57.690;11.974;2023-03-25T05:11:57;98437.47;;;5.57;100.00
24825;BME280;12910;57.690;11.974;2023-03-25T05:14:22;98447.63;;;5.55;100.00
24825;BME280;12910;57.690;11.974;2023-03-25T05:16:48;98445.09;;;5.55;100.00
24825;BME280;12910;57.690;11.974;2023-03-25T05:19:14;98472.19;;;5.58;100.00
24825;BME280;12910;57.690;11.974;2023-03-25T05:21:42;98462.03;;;5.55;100.00
24825;BME280;12910;57.690;11.974;2023-03-25T05:24:10;98484.03;;;5.53;100.00
24825;BME280;12910;57.690;11.974;2023-03-25T05:26:36;98475.59;;;5.52;100.00
24825;BME280;12910;57.690;11.974;2023-03-25T05:29:05;98467.97;;;5.54;100.00
24825;BME280;12910;57.690;11.974;2023-03-25T05:31:30;98457.78;;;5.49;100.00
24825;BME280;12910;57.690;11.974;2023-03-25T05:33:56;98462.03;;;5.45;100.00
24825;BME280;12910;57.690;11.974;2023-03-25T05:36:22;98464.56;;;5.50;100.00
24825;BME280;12910;57.690;11.974;2023-03-25T05:38:51;98473.03;;;5.49;100.00
24825;BME280;12910;57.690;11.974;2023-03-25T05:41:19;98467.94;;;5.49;100.00
24825;BME280;12910;57.690;11.974;2023-03-25T05:43:45;98472.16;;;5.44;100.00
24825;BME280;12910;57.690;11.974;2023-03-25T05:46:16;98463.72;;;5.42;100.00
24825;BME280;12910;57.690;11.974;2023-03-25T05:48:42;98478.97;;;5.42;100.00
24825;BME280;12910;57.690;11.974;2023-03-25T05:51:14;98469.63;;;5.41;100.00
24825;BME280;12910;57.690;11.974;2023-03-25T05:53:44;98477.25;;;5.42;100.00
24825;BME280;12910;57.690;11.974;2023-03-25T05:56:17;98480.63;;;5.41;100.00
24825;BME280;12910;57.690;11.974;2023-03-25T05:58:44;98484.88;;;5.41;100.00
24825;BME280;12910;57.690;11.974;2023-03-25T06:01:10;98488.28;;;5.43;100.00
24825;BME280;12910;57.690;11.974;2023-03-25T06:03:38;98482.31;;;5.36;100.00
24825;BME280;12910;57.690;11.974;2023-03-25T06:06:04;98498.41;;;5.40;100.00
24825;BME280;12910;57.690;11.974;2023-03-25T06:08:29;98497.56;;;5.42;100.00
24825;BME280;12910;57.690;11.974;2023-03-25T06:10:55;98502.66;;;5.42;100.00
24825;BME280;12910;57.690;11.974;2023-03-25T06:13:25;98505.19;;;5.44;100.00
24825;BME280;12910;57.690;11.974;2023-03-25T06:15:50;98498.44;;;5.44;100.00
24825;BME280;12910;57.690;11.974;2023-03-25T06:18:21;98501.00;;;5.48;100.00
24825;BME280;12910;57.690;11.974;2023-03-25T06:20:49;98506.91;;;5.46;100.00
24825;BME280;12910;57.690;11.974;2023-03-25T06:23:16;98510.28;;;5.49;100.00
24825;BME280;12910;57.690;11.974;2023-03-25T06:25:42;98500.97;;;5.46;100.00
24825;BME280;12910;57.690;11.974;2023-03-25T06:28:07;98506.91;;;5.50;100.00
24825;BME280;12910;57.690;11.974;2023-03-25T06:30:32;98506.91;;;5.51;100.00
24825;BME280;12910;57.690;11.974;2023-03-25T06:32:58;98503.53;;;5.55;100.00
24825;BME280;12910;57.690;11.974;2023-03-25T06:35:26;98506.94;;;5.56;100.00
24825;BME280;12910;57.690;11.974;2023-03-25T06:37:52;98501.81;;;5.50;100.00
24825;BME280;12910;57.690;11.974;2023-03-25T06:40:17;98508.59;;;5.55;100.00
24825;BME280;12910;57.690;11.974;2023-03-25T06:42:43;98512.84;;;5.59;100.00
24825;BME280;12910;57.690;11.974;2023-03-25T06:45:08;98500.16;;;5.59;100.00
24825;BME280;12910;57.690;11.974;2023-03-25T06:47:34;98509.47;;;5.62;100.00
24825;BME280;12910;57.690;11.974;2023-03-25T06:49:59;98512.03;;;5.67;100.00
24825;BME280;12910;57.690;11.974;2023-03-25T06:52:25;98511.19;;;5.74;100.00
24825;BME280;12910;57.690;11.974;2023-03-25T06:54:50;98503.56;;;5.71;100.00
24825;BME280;12910;57.690;11.974;2023-03-25T06:57:16;98515.44;;;5.78;100.00
24825;BME280;12910;57.690;11.974;2023-03-25T06:59:41;98517.13;;;5.76;100.00
24825;BME280;12910;57.690;11.974;2023-03-25T07:02:08;98516.28;;;5.75;100.00
24825;BME280;12910;57.690;11.974;2023-03-25T07:04:35;98518.81;;;5.77;100.00
24825;BME280;12910;57.690;11.974;2023-03-25T07:07:00;98505.25;;;5.69;100.00
24825;BME280;12910;57.690;11.974;2023-03-25T07:09:25;98520.50;;;5.80;100.00
24825;BME280;12910;57.690;11.974;2023-03-25T07:11:51;98516.25;;;5.78;100.00
24825;BME280;12910;57.690;11.974;2023-03-25T07:14:16;98523.91;;;5.80;100.00
24825;BME280;12910;57.690;11.974;2023-03-25T07:16:42;98522.22;;;5.79;100.00
24825;BME280;12910;57.690;11.974;2023-03-25T07:19:07;98520.53;;;5.83;100.00
24825;BME280;12910;57.690;11.974;2023-03-25T07:21:33;98529.84;;;5.84;100.00
24825;BME280;12910;57.690;11.974;2023-03-25T07:23:58;98531.53;;;5.86;100.00
24825;BME280;12910;57.690;11.974;2023-03-25T07:26:23;98521.38;;;5.85;100.00
24825;BME280;12910;57.690;11.974;2023-03-25T07:28:49;98529.00;;;5.86;100.00
24825;BME280;12910;57.690;11.974;2023-03-25T07:31:15;98530.69;;;5.87;100.00
24825;BME280;12910;57.690;11.974;2023-03-25T07:33:41;98532.41;;;5.93;100.00
24825;BME280;12910;57.690;11.974;2023-03-25T07:36:07;98539.16;;;5.97;100.00
24825;BME280;12910;57.690;11.974;2023-03-25T07:38:34;98530.72;;;5.95;100.00
24825;BME280;12910;57.690;11.974;2023-03-25T07:41:12;98537.50;;;6.04;100.00
24825;BME280;12910;57.690;11.974;2023-03-25T07:43:38;98532.44;;;6.01;100.00
24825;BME280;12910;57.690;11.974;2023-03-25T07:46:04;98534.97;;;6.12;100.00
24825;BME280;12910;57.690;11.974;2023-03-25T07:48:30;98537.53;;;6.16;100.00
24825;BME280;12910;57.690;11.974;2023-03-25T07:50:56;98537.53;;;6.18;100.00
24825;BME280;12910;57.690;11.974;2023-03-25T07:53:21;98543.47;;;6.23;100.00
24825;BME280;12910;57.690;11.974;2023-03-25T07:55:47;98537.53;;;6.22;100.00
24825;BME280;12910;57.690;11.974;2023-03-25T07:58:16;98525.63;;;6.21;100.00
24825;BME280;12910;57.690;11.974;2023-03-25T08:00:42;98540.91;;;6.32;100.00
24825;BME280;12910;57.690;11.974;2023-03-25T08:03:12;98546.84;;;6.36;100.00
24825;BME280;12910;57.690;11.974;2023-03-25T08:05:44;98551.09;;;6.42;100.00
24825;BME280;12910;57.690;11.974;2023-03-25T08:08:10;98549.38;;;6.42;100.00
24825;BME280;12910;57.690;11.974;2023-03-25T08:10:36;98545.13;;;6.46;100.00
24825;BME280;12910;57.690;11.974;2023-03-25T08:13:01;98540.91;;;6.46;100.00
24825;BME280;12910;57.690;11.974;2023-03-25T08:15:26;98538.34;;;6.51;100.00
24825;BME280;12910;57.690;11.974;2023-03-25T08:17:52;98540.06;;;6.49;100.00
24825;BME280;12910;57.690;11.974;2023-03-25T08:20:17;98535.81;;;6.55;100.00
24825;BME280;12910;57.690;11.974;2023-03-25T08:22:44;98536.66;;;6.58;100.00
24825;BME280;12910;57.690;11.974;2023-03-25T08:25:09;98535.81;;;6.59;100.00
24825;BME280;12910;57.690;11.974;2023-03-25T08:27:35;98546.84;;;6.51;100.00
24825;BME280;12910;57.690;11.974;2023-03-25T08:30:00;98549.38;;;6.61;100.00
24825;BME280;12910;57.690;11.974;2023-03-25T08:32:27;98554.44;;;6.68;100.00
24825;BME280;12910;57.690;11.974;2023-03-25T08:34:53;98551.91;;;6.68;100.00
24825;BME280;12910;57.690;11.974;2023-03-25T08:37:19;98556.97;;;6.70;100.00
24825;BME280;12910;57.690;11.974;2023-03-25T08:39:46;98557.84;;;6.75;100.00
24825;BME280;12910;57.690;11.974;2023-03-25T08:42:14;98556.97;;;6.81;100.00
24825;BME280;12910;57.690;11.974;2023-03-25T08:44:40;98550.19;;;6.84;100.00
24825;BME280;12910;57.690;11.974;2023-03-25T08:47:06;98545.94;;;6.86;100.00
24825;BME280;12910;57.690;11.974;2023-03-25T08:49:31;98547.63;;;6.84;100.00
24825;BME280;12910;57.690;11.974;2023-03-25T08:51:57;98551.03;;;6.83;100.00
24825;BME280;12910;57.690;11.974;2023-03-25T08:54:24;98542.56;;;6.75;100.00
24825;BME280;12910;57.690;11.974;2023-03-25T08:56:51;98559.53;;;6.76;100.00
24825;BME280;12910;57.690;11.974;2023-03-25T08:59:16;98551.06;;;6.68;100.00
24825;BME280;12910;57.690;11.974;2023-03-25T09:01:42;98548.50;;;6.71;100.00
24825;BME280;12910;57.690;11.974;2023-03-25T09:04:09;98547.66;;;6.72;100.00
24825;BME280;12910;57.690;11.974;2023-03-25T09:06:35;98549.34;;;6.75;100.00
24825;BME280;12910;57.690;11.974;2023-03-25T09:09:01;98551.88;;;6.79;100.00
24825;BME280;12910;57.690;11.974;2023-03-25T09:11:26;98556.97;;;6.79;100.00
24825;BME280;12910;57.690;11.974;2023-03-25T09:13:52;98563.75;;;6.85;100.00
24825;BME280;12910;57.690;11.974;2023-03-25T09:16:17;98555.25;;;6.92;100.00
24825;BME280;12910;57.690;11.974;2023-03-25T09:18:42;98556.09;;;6.96;100.00
24825;BME280;12910;57.690;11.974;2023-03-25T09:21:08;98568.81;;;6.94;100.00
24825;BME280;12910;57.690;11.974;2023-03-25T09:23:33;98574.78;;;6.95;100.00
24825;BME280;12910;57.690;11.974;2023-03-25T09:26:00;98576.50;;;6.83;100.00
24825;BME280;12910;57.690;11.974;2023-03-25T09:28:26;98572.25;;;6.81;100.00
24825;BME280;12910;57.690;11.974;2023-03-25T09:30:53;98571.41;;;6.74;100.00
24825;BME280;12910;57.690;11.974;2023-03-25T09:33:19;98589.22;;;6.76;100.00
24825;BME280;12910;57.690;11.974;2023-03-25T09:35:44;98576.50;;;6.77;100.00
24825;BME280;12910;57.690;11.974;2023-03-25T09:38:11;98574.81;;;6.73;100.00
24825;BME280;12910;57.690;11.974;2023-03-25T09:40:40;98583.28;;;6.75;100.00
24825;BME280;12910;57.690;11.974;2023-03-25T09:45:50;98584.16;;;6.63;100.00
24825;BME280;12910;57.690;11.974;2023-03-25T09:50:48;98593.50;;;6.52;100.00
24825;BME280;12910;57.690;11.974;2023-03-25T09:55:51;98600.28;;;6.51;100.00
24825;BME280;12910;57.690;11.974;2023-03-25T10:00:55;98610.47;;;6.48;100.00
24825;BME280;12910;57.690;11.974;2023-03-25T10:06:17;98598.59;;;6.47;100.00
24825;BME280;12910;57.690;11.974;2023-03-25T10:08:52;98603.69;;;6.57;100.00
24825;BME280;12910;57.690;11.974;2023-03-25T10:14:20;98613.84;;;6.63;100.00
24825;BME280;12910;57.690;11.974;2023-03-25T10:17:05;98611.28;;;6.63;100.00
24825;BME280;12910;57.690;11.974;2023-03-25T10:22:27;98614.69;;;6.65;100.00
24825;BME280;12910;57.690;11.974;2023-03-25T10:25:03;98618.94;;;6.63;100.00
24825;BME280;12910;57.690;11.974;2023-03-25T10:30:08;98628.28;;;6.67;100.00
24825;BME280;12910;57.690;11.974;2023-03-25T10:32:39;98624.03;;;6.67;100.00
24825;BME280;12910;57.690;11.974;2023-03-25T10:35:17;98617.25;;;6.68;100.00
24825;BME280;12910;57.690;11.974;2023-03-25T10:37:45;98625.72;;;6.76;100.00
24825;BME280;12910;57.690;11.974;2023-03-25T10:40:22;98624.88;;;6.74;100.00
24825;BME280;12910;57.690;11.974;2023-03-25T10:43:13;98637.59;;;6.76;100.00
24825;BME280;12910;57.690;11.974;2023-03-25T10:45:41;98632.50;;;6.86;100.00
24825;BME280;12910;57.690;11.974;2023-03-25T10:48:24;98627.38;;;6.90;100.00
24825;BME280;12910;57.690;11.974;2023-03-25T10:50:59;98616.38;;;6.86;100.00
24825;BME280;12910;57.690;11.974;2023-03-25T10:53:27;98632.50;;;6.96;100.00
24825;BME280;12910;57.690;11.974;2023-03-25T10:56:01;98626.56;;;7.01;100.00
24825;BME280;12910;57.690;11.974;2023-03-25T10:58:28;98628.22;;;7.06;100.00
24825;BME280;12910;57.690;11.974;2023-03-25T11:00:54;98618.91;;;7.01;100.00
24825;BME280;12910;57.690;11.974;2023-03-25T11:03:25;98623.97;;;7.09;100.00
24825;BME280;12910;57.690;11.974;2023-03-25T11:05:53;98616.34;;;7.08;100.00
24825;BME280;12910;57.690;11.974;2023-03-25T11:08:19;98614.63;;;7.07;100.00
24825;BME280;12910;57.690;11.974;2023-03-25T11:10:50;98617.19;;;7.14;100.00
24825;BME280;12910;57.690;11.974;2023-03-25T11:13:23;98617.16;;;7.13;100.00
24825;BME280;12910;57.690;11.974;2023-03-25T11:15:51;98613.75;;;7.18;100.00
24825;BME280;12910;57.690;11.974;2023-03-25T11:18:33;98618.00;;;7.18;100.00
24825;BME280;12910;57.690;11.974;2023-03-25T11:21:03;98610.34;;;7.20;100.00
24825;BME280;12910;57.690;11.974;2023-03-25T11:23:32;98611.22;;;7.22;100.00
24825;BME280;12910;57.690;11.974;2023-03-25T11:26:10;98616.31;;;7.22;100.00
24825;BME280;12910;57.690;11.974;2023-03-25T11:28:40;98620.56;;;7.23;100.00
24825;BME280;12910;57.690;11.974;2023-03-25T11:31:18;98627.34;;;7.21;100.00
24825;BME280;12910;57.690;11.974;2023-03-25T11:33:45;98622.25;;;7.19;100.00
24825;BME280;12910;57.690;11.974;2023-03-25T11:38:45;98625.66;;;7.20;100.00
24825;BME280;12910;57.690;11.974;2023-03-25T11:41:12;98632.44;;;7.17;100.00
24825;BME280;12910;57.690;11.974;2023-03-25T11:43:38;98618.88;;;7.09;100.00
24825;BME280;12910;57.690;11.974;2023-03-25T11:46:12;98619.72;;;7.14;100.00
24825;BME280;12910;57.690;11.974;2023-03-25T11:48:40;98617.16;;;7.19;100.00
24825;BME280;12910;57.690;11.974;2023-03-25T11:51:14;98625.63;;;7.32;100.00
24825;BME280;12910;57.690;11.974;2023-03-25T11:53:46;98622.22;;;7.30;100.00
24825;BME280;12910;57.690;11.974;2023-03-25T11:56:16;98628.16;;;7.29;100.00
24825;BME280;12910;57.690;11.974;2023-03-25T11:58:46;98618.00;;;7.30;100.00
24825;BME280;12910;57.690;11.974;2023-03-25T12:01:24;98613.72;;;7.34;100.00
24825;BME280;12910;57.690;11.974;2023-03-25T12:03:50;98612.88;;;7.35;100.00
24825;BME280;12910;57.690;11.974;2023-03-25T12:06:22;98614.53;;;7.39;100.00
24825;BME280;12910;57.690;11.974;2023-03-25T12:08:59;98612.00;;;7.39;100.00
24825;BME280;12910;57.690;11.974;2023-03-25T12:18:52;98609.34;;;7.66;100.00
24825;BME280;12910;57.690;11.974;2023-03-25T12:24:19;98594.84;;;7.77;100.00
24825;BME280;12910;57.690;11.974;2023-03-25T12:29:34;98596.50;;;7.84;100.00
24825;BME280;12910;57.690;11.974;2023-03-25T12:34:56;98597.38;;;7.78;100.00
24825;BME280;12910;57.690;11.974;2023-03-25T12:38:11;98596.56;;;7.75;100.00
24825;BME280;12910;57.690;11.974;2023-03-25T12:43:05;98584.63;;;7.75;100.00
24825;BME280;12910;57.690;11.974;2023-03-25T12:54:10;98594.09;;;7.59;100.00
24825;BME280;12910;57.690;11.974;2023-03-25T13:03:24;98589.00;;;7.55;100.00
24825;BME280;12910;57.690;11.974;2023-03-25T13:10:42;98598.41;;;7.37;100.00
24825;BME280;12910;57.690;11.974;2023-03-25T13:13:29;98606.06;;;7.43;100.00
24825;BME280;12910;57.690;11.974;2023-03-25T13:18:30;98611.13;;;7.45;100.00
24825;BME280;12910;57.690;11.974;2023-03-25T13:21:05;98613.69;;;7.40;100.00
24825;BME280;12910;57.690;11.974;2023-03-25T13:23:35;98612.00;;;7.36;100.00
24825;BME280;12910;57.690;11.974;2023-03-25T13:26:05;98612.88;;;7.37;100.00
24825;BME280;12910;57.690;11.974;2023-03-25T13:28:52;98615.38;;;7.43;100.00
24825;BME280;12910;57.690;11.974;2023-03-25T13:31:25;98615.38;;;7.44;100.00
24825;BME280;12910;57.690;11.974;2023-03-25T13:34:09;98615.34;;;7.51;100.00
24825;BME280;12910;57.690;11.974;2023-03-25T13:42:57;98630.66;;;7.54;100.00
24825;BME280;12910;57.690;11.974;2023-03-25T13:45:24;98630.63;;;7.52;100.00
24825;BME280;12910;57.690;11.974;2023-03-25T13:48:08;98633.19;;;7.51;100.00
24825;BME280;12910;57.690;11.974;2023-03-25T13:50:35;98630.66;;;7.47;100.00
24825;BME280;12910;57.690;11.974;2023-03-25T13:53:08;98625.56;;;7.43;100.00
24825;BME280;12910;57.690;11.974;2023-03-25T13:55:40;98631.56;;;7.39;100.00
24825;BME280;12910;57.690;11.974;2023-03-25T13:58:20;98634.91;;;7.41;100.00
24825;BME280;12910;57.690;11.974;2023-03-25T14:01:19;98623.88;;;7.40;100.00
24825;BME280;12910;57.690;11.974;2023-03-25T14:06:52;98636.63;;;7.45;100.00
24825;BME280;12910;57.690;11.974;2023-03-25T14:09:37;98634.03;;;7.46;100.00
24825;BME280;12910;57.690;11.974;2023-03-25T14:12:16;98630.66;;;7.51;100.00
24825;BME280;12910;57.690;11.974;2023-03-25T14:14:48;98620.44;;;7.52;100.00
24825;BME280;12910;57.690;11.974;2023-03-25T14:17:16;98631.50;;;7.53;100.00
24825;BME280;12910;57.690;11.974;2023-03-25T14:19:47;98630.69;;;7.44;100.00
24825;BME280;12910;57.690;11.974;2023-03-25T14:22:16;98634.91;;;7.47;100.00
24825;BME280;12910;57.690;11.974;2023-03-25T14:24:44;98639.16;;;7.53;100.00
24825;BME280;12910;57.690;11.974;2023-03-25T14:29:56;98642.53;;;7.48;100.00
24825;BME280;12910;57.690;11.974;2023-03-25T14:32:28;98639.16;;;7.46;100.00
24825;BME280;12910;57.690;11.974;2023-03-25T14:53:40;98657.88;;;7.30;100.00
24825;BME280;12910;57.690;11.974;2023-03-25T14:56:16;98657.88;;;7.27;100.00
24825;BME280;12910;57.690;11.974;2023-03-25T14:58:43;98673.22;;;7.16;100.00
24825;BME280;12910;57.690;11.974;2023-03-25T15:01:13;98680.03;;;6.94;100.00
24825;BME280;12910;57.690;11.974;2023-03-25T15:03:42;98680.88;;;6.91;100.00
24825;BME280;12910;57.690;11.974;2023-03-25T15:06:14;98666.44;;;6.82;100.00
24825;BME280;12910;57.690;11.974;2023-03-25T15:08:41;98678.34;;;6.83;100.00